createdAt,value
2022-08-16T00:01:14.687Z,99.90
2022-08-16T00:03:41.392Z,99.90
2022-08-16T00:06:08.570Z,99.90
2022-08-16T00:08:37.672Z,99.90
2022-08-16T00:11:07.435Z,99.90
2022-08-16T00:13:41.650Z,99.90
2022-08-16T00:17:06.372Z,99.90
2022-08-16T00:18:59.997Z,99.90
2022-08-16T00:21:30.322Z,99.90
2022-08-16T00:23:58.559Z,99.90
2022-08-16T00:26:36.230Z,99.90
2022-08-16T00:29:12.966Z,99.90
2022-08-16T00:31:59.318Z,99.90
2022-08-16T00:34:44.402Z,99.90
2022-08-16T00:37:18.587Z,99.90
2022-08-16T00:39:57.138Z,99.90
2022-08-16T00:42:30.381Z,99.90
2022-08-16T00:45:37.675Z,99.90
2022-08-16T00:48:30.587Z,99.90
2022-08-16T00:51:00.070Z,99.90
2022-08-16T00:53:27.399Z,99.90
2022-08-16T00:56:05.197Z,99.90
2022-08-16T00:58:35.438Z,99.90
2022-08-16T01:01:08.195Z,99.90
2022-08-16T01:03:37.276Z,99.90
2022-08-16T01:06:40.576Z,99.90
2022-08-16T01:09:00.042Z,99.90
2022-08-16T01:11:27.942Z,99.90
2022-08-16T01:14:04.634Z,99.90
2022-08-16T01:16:31.955Z,99.90
2022-08-16T01:19:13.108Z,99.90
2022-08-16T01:21:53.232Z,99.90
2022-08-16T01:24:53.314Z,99.90
2022-08-16T01:27:25.727Z,99.90
2022-08-16T01:30:20.329Z,99.90
2022-08-16T01:33:02.159Z,99.90
2022-08-16T01:35:52.794Z,99.90
2022-08-16T01:38:30.243Z,99.90
2022-08-16T01:41:09.989Z,99.90
2022-08-16T01:43:40.001Z,99.90
2022-08-16T01:46:38.204Z,99.90
2022-08-16T01:49:20.582Z,99.90
2022-08-16T01:51:55.078Z,99.90
2022-08-16T01:54:30.750Z,99.90
2022-08-16T01:56:59.189Z,99.90
2022-08-16T01:59:27.914Z,99.90
2022-08-16T02:01:59.871Z,99.90
2022-08-16T02:04:48.301Z,99.90
2022-08-16T02:07:19.274Z,99.90
2022-08-16T02:09:58.907Z,99.90
2022-08-16T02:12:39.721Z,99.90
2022-08-16T02:15:24.890Z,99.90
2022-08-16T02:17:56.193Z,99.90
2022-08-16T02:20:25.946Z,99.90
2022-08-16T02:22:55.139Z,99.90
2022-08-16T02:25:22.967Z,99.90
2022-08-16T02:27:53.564Z,99.90
2022-08-16T02:30:35.933Z,99.90
2022-08-16T02:33:11.940Z,99.90
2022-08-16T02:35:54.231Z,99.90
2022-08-16T02:38:31.703Z,99.90
2022-08-16T02:41:01.838Z,99.90
2022-08-16T02:43:33.258Z,99.90
2022-08-16T02:46:03.398Z,99.90
2022-08-16T02:48:35.976Z,99.90
2022-08-16T02:51:11.354Z,99.90
2022-08-16T02:53:45.955Z,99.90
2022-08-16T02:56:18.423Z,99.90
2022-08-16T02:58:47.303Z,99.90
2022-08-16T03:01:25.422Z,99.90
2022-08-16T03:04:39.426Z,99.90
2022-08-16T03:06:56.416Z,99.90
2022-08-16T03:09:36.033Z,99.90
2022-08-16T03:12:04.861Z,99.90
2022-08-16T03:14:33.909Z,99.90
2022-08-16T03:17:02.043Z,99.90
2022-08-16T03:19:48.542Z,99.90
2022-08-16T03:22:28.779Z,99.90
2022-08-16T03:25:01.900Z,99.90
2022-08-16T03:27:32.952Z,99.90
2022-08-16T03:30:19.815Z,99.90
2022-08-16T03:32:52.145Z,99.90
2022-08-16T03:35:32.647Z,99.90
2022-08-16T03:38:33.791Z,99.90
2022-08-16T03:40:56.431Z,99.90
2022-08-16T03:43:51.423Z,99.90
2022-08-16T03:46:44.498Z,99.90
2022-08-16T03:49:12.226Z,99.90
2022-08-16T03:51:42.196Z,99.90
2022-08-16T03:54:12.917Z,99.90
2022-08-16T03:56:57.678Z,99.90
2022-08-16T03:59:29.461Z,99.90
2022-08-16T04:02:00.998Z,99.90
2022-08-16T04:04:33.515Z,99.90
2022-08-16T04:07:04.155Z,99.90
2022-08-16T04:09:35.256Z,99.90
2022-08-16T04:12:10.857Z,99.90
2022-08-16T04:14:54.563Z,99.90
2022-08-16T04:17:21.984Z,99.90
2022-08-16T04:19:54.862Z,99.90
2022-08-16T04:22:27.715Z,99.90
2022-08-16T04:24:59.375Z,99.90
2022-08-16T04:27:31.888Z,99.90
2022-08-16T04:30:02.733Z,99.90
2022-08-16T04:32:33.406Z,99.90
2022-08-16T04:35:07.623Z,99.90
2022-08-16T04:37:42.283Z,99.90
2022-08-16T04:40:21.688Z,99.90
2022-08-16T04:42:50.242Z,99.90
2022-08-16T04:45:36.217Z,99.90
2022-08-16T04:48:07.833Z,99.90
2022-08-16T04:50:44.169Z,99.90
2022-08-16T04:53:16.579Z,99.90
2022-08-16T04:55:47.300Z,99.90
2022-08-16T04:58:44.228Z,99.90
2022-08-16T05:01:08.140Z,99.90
2022-08-16T05:03:41.991Z,99.90
2022-08-16T05:06:23.254Z,99.90
2022-08-16T05:09:10.241Z,99.90
2022-08-16T05:11:37.023Z,99.90
2022-08-16T05:14:06.722Z,99.90
2022-08-16T05:16:34.356Z,99.90
2022-08-16T05:19:11.778Z,99.90
2022-08-16T05:22:00.211Z,99.90
2022-08-16T05:24:27.147Z,99.90
2022-08-16T05:26:54.295Z,99.90
2022-08-16T05:29:24.952Z,99.90
2022-08-16T05:32:32.713Z,99.90
2022-08-16T05:35:07.656Z,99.90
2022-08-16T05:37:40.739Z,99.90
2022-08-16T05:40:13.283Z,99.90
2022-08-16T05:42:45.953Z,99.90
2022-08-16T05:45:13.263Z,99.90
2022-08-16T05:47:49.152Z,99.90
2022-08-16T05:50:28.219Z,99.90
2022-08-16T05:53:00.753Z,99.90
2022-08-16T05:55:28.422Z,99.90
2022-08-16T05:57:56.825Z,99.90
2022-08-16T06:00:23.659Z,99.90
2022-08-16T06:02:57.640Z,99.90
2022-08-16T06:05:45.315Z,99.90
2022-08-16T06:08:32.099Z,99.90
2022-08-16T06:11:03.054Z,99.90
2022-08-16T06:13:42.142Z,99.90
2022-08-16T06:16:18.512Z,99.90
2022-08-16T06:18:46.802Z,99.90
2022-08-16T06:21:22.534Z,99.90
2022-08-16T06:23:54.174Z,99.90
2022-08-16T06:26:23.018Z,99.90
2022-08-16T06:28:50.457Z,99.90
2022-08-16T06:31:25.565Z,99.90
2022-08-16T06:33:55.003Z,99.90
2022-08-16T06:36:26.847Z,99.90
2022-08-16T06:39:01.959Z,99.90
2022-08-16T06:41:48.039Z,99.90
2022-08-16T06:44:38.485Z,99.90
2022-08-16T06:47:16.827Z,99.90
2022-08-16T06:49:54.259Z,99.90
2022-08-16T06:52:57.783Z,99.90
2022-08-16T06:55:23.053Z,99.90
2022-08-16T06:57:54.671Z,99.90
2022-08-16T07:00:25.113Z,99.90
2022-08-16T07:03:28.077Z,99.90
2022-08-16T07:05:53.928Z,99.90
2022-08-16T07:08:27.998Z,99.90
2022-08-16T07:10:56.612Z,99.90
2022-08-16T07:14:23.007Z,99.90
2022-08-16T07:16:17.039Z,99.90
2022-08-16T07:18:58.187Z,99.90
2022-08-16T07:21:28.375Z,99.90
2022-08-16T07:24:13.131Z,99.90
2022-08-16T07:27:00.668Z,99.90
2022-08-16T07:29:31.494Z,99.90
2022-08-16T07:32:01.099Z,99.90
2022-08-16T07:34:35.237Z,99.90
2022-08-16T07:37:11.276Z,99.90
2022-08-16T07:40:19.177Z,99.90
2022-08-16T07:42:52.727Z,99.90
2022-08-16T07:45:21.307Z,99.90
2022-08-16T07:47:57.168Z,99.90
2022-08-16T07:50:58.677Z,99.90
2022-08-16T07:53:14.159Z,99.90
2022-08-16T07:55:47.648Z,99.90
2022-08-16T07:58:34.226Z,99.90
2022-08-16T08:01:10.318Z,99.90
2022-08-16T08:03:42.559Z,99.90
2022-08-16T08:06:12.500Z,99.90
2022-08-16T08:08:51.328Z,99.90
2022-08-16T08:11:23.855Z,99.90
2022-08-16T08:13:54.471Z,99.90
2022-08-16T08:16:30.626Z,99.90
2022-08-16T08:19:03.445Z,99.90
2022-08-16T08:21:59.159Z,99.90
2022-08-16T08:24:31.611Z,99.90
2022-08-16T08:27:02.415Z,99.90
2022-08-16T08:29:37.616Z,99.90
2022-08-16T08:32:57.256Z,99.90
2022-08-16T08:35:02.996Z,99.90
2022-08-16T08:37:54.265Z,99.90
2022-08-16T08:40:18.884Z,99.90
2022-08-16T08:42:51.395Z,99.90
2022-08-16T08:45:48.019Z,99.90
2022-08-16T08:48:33.681Z,99.90
2022-08-16T08:50:59.608Z,99.90
2022-08-16T08:53:29.942Z,99.90
2022-08-16T08:55:59.087Z,99.90
2022-08-16T08:58:34.234Z,99.90
2022-08-16T09:01:36.828Z,99.90
2022-08-16T09:04:14.564Z,99.90
2022-08-16T09:06:44.498Z,99.90
2022-08-16T09:09:16.739Z,99.90
2022-08-16T09:11:52.398Z,99.90
2022-08-16T09:14:23.846Z,99.90
2022-08-16T09:17:00.898Z,98.30
2022-08-16T09:19:37.200Z,97.90
2022-08-16T09:22:21.016Z,96.10
2022-08-16T09:24:52.363Z,94.00
2022-08-16T09:27:25.323Z,90.60
2022-08-16T09:30:00.245Z,90.20
2022-08-16T09:32:31.335Z,89.00
2022-08-16T09:35:01.573Z,90.70
2022-08-16T09:37:36.413Z,88.10
2022-08-16T09:40:31.812Z,88.10
2022-08-16T09:42:56.547Z,82.40
2022-08-16T09:45:26.314Z,80.20
2022-08-16T09:47:56.539Z,82.30
2022-08-16T09:50:36.743Z,80.70
2022-08-16T09:53:14.998Z,78.40
2022-08-16T09:55:44.946Z,74.40
2022-08-16T09:58:41.297Z,76.10
2022-08-16T10:01:02.528Z,73.90
2022-08-16T10:03:30.602Z,73.50
2022-08-16T10:05:57.738Z,77.00
2022-08-16T10:08:25.916Z,73.90
2022-08-16T10:11:12.172Z,68.60
2022-08-16T10:13:39.588Z,68.60
2022-08-16T10:18:56.270Z,70.50
2022-08-16T10:21:24.640Z,69.10
2022-08-16T10:23:59.727Z,68.80
2022-08-16T10:27:17.978Z,66.80
2022-08-16T10:29:20.176Z,66.30
2022-08-16T10:31:53.158Z,64.00
2022-08-16T10:34:31.656Z,64.90
2022-08-16T10:37:00.413Z,63.30
2022-08-16T10:39:32.951Z,65.10
2022-08-16T10:42:08.985Z,64.90
2022-08-16T10:44:36.810Z,65.00
2022-08-16T10:47:04.488Z,63.30
2022-08-16T10:49:32.253Z,61.80
2022-08-16T10:52:18.786Z,62.50
2022-08-16T10:57:36.739Z,60.80
2022-08-16T11:00:21.342Z,59.00
2022-08-16T11:02:57.955Z,60.50
2022-08-16T11:05:59.030Z,59.80
2022-08-16T11:08:18.032Z,57.10
2022-08-16T11:10:58.445Z,56.30
2022-08-16T11:17:01.987Z,57.10
2022-08-16T11:19:12.184Z,58.00
2022-08-16T11:24:39.411Z,58.50
2022-08-16T11:27:22.951Z,60.40
2022-08-16T11:29:55.673Z,60.90
2022-08-16T11:32:31.956Z,62.10
2022-08-16T11:35:10.307Z,64.40
2022-08-16T11:40:32.874Z,63.20
2022-08-16T11:43:04.215Z,63.90
2022-08-16T11:45:33.698Z,63.60
2022-08-16T11:48:04.469Z,61.80
2022-08-16T11:50:33.825Z,63.20
2022-08-16T11:53:02.425Z,63.40
2022-08-16T11:55:31.434Z,61.30
2022-08-16T11:57:58.269Z,61.80
2022-08-16T12:00:33.540Z,58.70
2022-08-16T12:03:13.520Z,61.20
2022-08-16T12:05:44.061Z,62.10
2022-08-16T12:08:13.420Z,64.20
2022-08-16T12:10:46.541Z,64.50
2022-08-16T12:13:13.839Z,64.20
2022-08-16T12:15:42.475Z,62.60
2022-08-16T12:18:10.387Z,62.60
2022-08-16T12:20:40.057Z,63.30
2022-08-16T12:23:07.702Z,61.30
2022-08-16T12:25:35.855Z,62.60
2022-08-16T12:28:06.173Z,62.80
2022-08-16T12:30:38.791Z,62.70
2022-08-16T12:33:07.948Z,63.60
2022-08-16T12:35:36.979Z,62.00
2022-08-16T12:38:08.731Z,62.50
2022-08-16T12:40:57.210Z,61.10
2022-08-16T12:43:25.586Z,61.30
2022-08-16T12:45:55.271Z,62.50
2022-08-16T12:48:53.100Z,61.90
2022-08-16T12:51:24.695Z,60.30
2022-08-16T12:54:02.269Z,59.30
2022-08-16T12:56:33.505Z,60.60
2022-08-16T12:59:05.095Z,62.90
2022-08-16T13:01:33.354Z,63.10
2022-08-16T13:04:12.223Z,64.00
2022-08-16T13:06:52.346Z,64.80
2022-08-16T13:09:23.594Z,64.80
2022-08-16T13:12:21.069Z,65.20
2022-08-16T13:14:50.093Z,64.30
2022-08-16T13:17:26.437Z,63.90
2022-08-16T13:20:07.744Z,63.30
2022-08-16T13:22:43.564Z,63.40
2022-08-16T13:25:19.420Z,66.90
2022-08-16T13:28:02.180Z,66.90
2022-08-16T13:30:36.476Z,67.20
2022-08-16T13:33:12.553Z,67.90
2022-08-16T13:35:56.022Z,67.70
2022-08-16T13:38:31.531Z,68.90
2022-08-16T13:41:09.385Z,66.10
2022-08-16T13:43:38.315Z,68.20
2022-08-16T13:46:06.618Z,67.30
2022-08-16T13:48:43.354Z,65.40
2022-08-16T13:51:18.764Z,64.90
2022-08-16T13:53:59.256Z,67.10
2022-08-16T13:56:37.708Z,65.90
2022-08-16T13:59:19.648Z,66.30
2022-08-16T14:01:54.624Z,65.10
2022-08-16T14:04:27.530Z,65.30
2022-08-16T14:06:55.362Z,64.40
2022-08-16T14:09:23.600Z,62.80
2022-08-16T14:11:53.517Z,58.80
2022-08-16T14:14:26.650Z,55.40
2022-08-16T14:16:56.896Z,55.60
2022-08-16T14:19:23.563Z,55.60
2022-08-16T14:22:03.905Z,56.40
2022-08-16T14:24:41.330Z,57.20
2022-08-16T14:27:13.195Z,57.00
2022-08-16T14:29:42.418Z,56.00
2022-08-16T14:32:09.552Z,56.70
2022-08-16T14:34:40.995Z,57.20
2022-08-16T14:37:09.193Z,60.20
2022-08-16T14:39:39.323Z,60.20
2022-08-16T14:42:09.336Z,60.20
2022-08-16T14:44:38.335Z,62.00
2022-08-16T14:47:15.136Z,62.80
2022-08-16T14:49:42.053Z,62.30
2022-08-16T14:52:12.936Z,62.80
2022-08-16T14:54:43.428Z,63.40
2022-08-16T14:57:13.222Z,62.80
2022-08-16T14:59:43.747Z,61.20
2022-08-16T15:02:33.892Z,62.20
2022-08-16T15:05:01.756Z,63.70
2022-08-16T15:07:34.475Z,64.90
2022-08-16T15:10:02.429Z,63.70
2022-08-16T15:12:35.919Z,63.60
2022-08-16T15:15:12.014Z,64.10
2022-08-16T15:17:41.279Z,64.10
2022-08-16T15:20:10.524Z,65.90
2022-08-16T15:22:42.560Z,64.40
2022-08-16T15:25:27.509Z,64.30
2022-08-16T15:27:58.654Z,65.30
2022-08-16T15:30:47.842Z,64.50
2022-08-16T15:33:24.670Z,65.40
2022-08-16T15:35:55.152Z,63.30
2022-08-16T15:38:58.191Z,62.30
2022-08-16T15:41:09.384Z,64.00
2022-08-16T15:43:40.479Z,64.00
2022-08-16T15:46:54.258Z,66.00
2022-08-16T15:49:12.162Z,65.80
2022-08-16T15:51:39.401Z,61.60
2022-08-16T15:54:21.358Z,60.20
2022-08-16T15:56:55.164Z,60.00
2022-08-16T15:59:27.209Z,60.90
2022-08-16T16:01:55.805Z,60.50
2022-08-16T16:04:23.348Z,62.10
2022-08-16T16:06:54.885Z,61.50
2022-08-16T16:09:36.898Z,61.20
2022-08-16T16:12:41.521Z,61.90
2022-08-16T16:14:53.263Z,58.00
2022-08-16T16:17:20.159Z,59.00
2022-08-16T16:19:53.655Z,56.20
2022-08-16T16:22:21.535Z,55.60
2022-08-16T16:24:49.108Z,56.80
2022-08-16T16:27:16.890Z,55.80
2022-08-16T16:29:50.856Z,56.80
2022-08-16T16:32:34.146Z,58.40
2022-08-16T16:35:04.226Z,57.90
2022-08-16T16:37:33.014Z,57.50
2022-08-16T16:40:00.282Z,58.50
2022-08-16T16:42:30.349Z,58.50
2022-08-16T16:45:01.682Z,58.80
2022-08-16T16:47:29.535Z,58.00
2022-08-16T16:49:56.219Z,57.70
2022-08-16T16:52:43.448Z,58.00
2022-08-16T16:55:12.736Z,56.00
2022-08-16T16:57:57.887Z,56.60
2022-08-16T17:00:25.913Z,56.50
2022-08-16T17:02:57.191Z,56.80
2022-08-16T17:05:26.906Z,59.80
2022-08-16T17:07:59.483Z,58.10
2022-08-16T17:10:45.870Z,58.40
2022-08-16T17:13:20.168Z,59.00
2022-08-16T17:15:50.148Z,59.10
2022-08-16T17:21:08.621Z,57.50
2022-08-16T17:23:58.922Z,57.50
2022-08-16T17:26:29.900Z,59.00
2022-08-16T17:29:02.649Z,62.70
2022-08-16T17:31:43.252Z,67.20
2022-08-16T17:34:30.235Z,70.60
2022-08-16T17:37:05.441Z,72.30
2022-08-16T17:39:26.514Z,58.40
2022-08-16T17:39:45.219Z,75.00
2022-08-16T17:42:22.348Z,76.60
2022-08-16T17:44:52.009Z,77.70
2022-08-16T17:47:18.956Z,77.40
2022-08-16T17:49:45.656Z,78.10
2022-08-16T17:52:12.954Z,79.40
2022-08-16T17:54:39.727Z,80.40
2022-08-16T17:57:10.299Z,80.80
2022-08-16T17:59:41.262Z,81.20
2022-08-16T18:02:43.461Z,80.10
2022-08-16T18:04:56.331Z,79.30
2022-08-16T18:07:23.570Z,79.70
2022-08-16T18:09:52.440Z,80.60
2022-08-16T18:12:50.943Z,80.00
2022-08-16T18:15:12.764Z,79.20
2022-08-16T18:17:39.904Z,80.40
2022-08-16T18:20:27.977Z,81.20
2022-08-16T18:22:55.213Z,82.20
2022-08-16T18:25:22.001Z,82.90
2022-08-16T18:27:48.680Z,84.00
2022-08-16T18:30:17.524Z,85.50
2022-08-16T18:32:48.854Z,86.10
2022-08-16T18:35:17.242Z,88.30
2022-08-16T18:37:44.075Z,89.50
2022-08-16T18:40:11.889Z,90.30
2022-08-16T18:42:39.016Z,91.00
2022-08-16T18:45:06.800Z,91.80
2022-08-16T18:47:33.451Z,92.20
2022-08-16T18:50:00.513Z,92.30
2022-08-16T18:52:28.556Z,92.70
2022-08-16T18:55:01.468Z,93.50
2022-08-16T18:57:41.203Z,94.20
2022-08-16T19:00:12.173Z,95.00
2022-08-16T19:02:57.570Z,94.90
2022-08-16T19:05:29.032Z,95.90
2022-08-16T19:07:55.822Z,96.20
2022-08-16T19:10:23.168Z,96.70
2022-08-16T19:12:50.158Z,97.30
2022-08-16T19:15:21.114Z,98.50
2022-08-16T19:17:50.799Z,99.60
2022-08-16T19:20:22.159Z,99.90
2022-08-16T19:23:04.657Z,99.90
2022-08-16T19:25:46.239Z,99.90
2022-08-16T19:28:49.471Z,99.90
2022-08-16T19:31:10.743Z,99.90
2022-08-16T19:33:38.529Z,99.90
2022-08-16T19:36:06.639Z,99.90
2022-08-16T19:38:35.192Z,99.90
2022-08-16T19:41:02.238Z,99.90
2022-08-16T19:43:29.145Z,99.90
2022-08-16T19:45:56.543Z,99.90
2022-08-16T19:48:25.147Z,99.90
2022-08-16T19:50:51.829Z,99.90
2022-08-16T19:53:19.507Z,99.90
2022-08-16T19:55:49.745Z,99.90
2022-08-16T19:58:19.344Z,99.90
2022-08-16T20:00:47.815Z,99.90
2022-08-16T20:03:21.171Z,99.90
2022-08-16T20:05:52.804Z,99.90
2022-08-16T20:08:19.631Z,99.90
2022-08-16T20:10:47.483Z,99.90
2022-08-16T20:13:19.880Z,99.90
2022-08-16T20:15:48.222Z,99.90
2022-08-16T20:18:21.381Z,99.90
2022-08-16T20:20:52.092Z,99.90
2022-08-16T20:23:24.858Z,99.90
2022-08-16T20:25:55.647Z,99.90
2022-08-16T20:28:40.106Z,99.90
2022-08-16T20:31:11.411Z,99.90
2022-08-16T20:33:38.107Z,99.90
2022-08-16T20:36:05.547Z,99.90
2022-08-16T20:38:32.220Z,99.90
2022-08-16T20:40:58.871Z,99.90
2022-08-16T20:43:28.233Z,99.90
2022-08-16T20:45:54.904Z,99.90
2022-08-16T20:48:21.567Z,99.90
2022-08-16T20:50:48.211Z,99.90
2022-08-16T20:53:14.883Z,99.90
2022-08-16T20:55:42.340Z,99.90
2022-08-16T20:58:09.194Z,99.90
2022-08-16T21:00:36.016Z,99.90
2022-08-16T21:03:12.142Z,99.90
2022-08-16T21:05:39.284Z,99.90
2022-08-16T21:08:50.386Z,99.90
2022-08-16T21:10:52.932Z,99.90
2022-08-16T21:13:20.786Z,99.90
2022-08-16T21:15:47.759Z,99.90
2022-08-16T21:18:14.756Z,99.90
2022-08-16T21:20:41.488Z,99.90
2022-08-16T21:23:11.323Z,99.90
2022-08-16T21:25:41.484Z,99.90
2022-08-16T21:28:40.070Z,99.90
2022-08-16T21:31:14.248Z,99.90
2022-08-16T21:33:42.498Z,99.90
2022-08-16T21:36:09.886Z,99.90
2022-08-16T21:38:36.582Z,99.90
2022-08-16T21:41:05.131Z,99.90
2022-08-16T21:43:33.485Z,99.90
2022-08-16T21:46:02.585Z,99.90
2022-08-16T21:48:33.735Z,99.90
2022-08-16T21:51:11.257Z,99.90
2022-08-16T21:53:42.124Z,99.90
2022-08-16T21:56:12.711Z,99.90
2022-08-16T21:58:45.240Z,99.90
2022-08-16T22:01:12.511Z,99.90
2022-08-16T22:03:39.386Z,99.90
2022-08-16T22:06:13.073Z,99.90
2022-08-16T22:08:50.178Z,99.90
2022-08-16T22:11:24.137Z,99.90
2022-08-16T22:13:58.980Z,99.90
2022-08-16T22:16:36.363Z,99.90
2022-08-16T22:19:04.989Z,99.90
2022-08-16T22:21:33.207Z,99.90
2022-08-16T22:24:00.586Z,99.90
2022-08-16T22:26:32.430Z,99.90
2022-08-16T22:29:08.763Z,99.90
2022-08-16T22:31:37.435Z,99.90
2022-08-16T22:34:05.187Z,99.90
2022-08-16T22:36:32.965Z,99.90
2022-08-16T22:39:04.071Z,99.90
2022-08-16T22:41:32.774Z,99.90
2022-08-16T22:44:01.283Z,99.90
2022-08-16T22:46:28.370Z,99.90
2022-08-16T22:48:55.022Z,99.90
2022-08-16T22:51:24.235Z,99.90
2022-08-16T22:53:51.603Z,99.90
2022-08-16T22:56:20.988Z,99.90
2022-08-16T22:58:48.075Z,99.90
2022-08-16T23:01:16.873Z,99.90
2022-08-16T23:03:43.910Z,99.90
2022-08-16T23:06:12.247Z,99.90
2022-08-16T23:08:41.397Z,99.90
2022-08-16T23:11:11.943Z,99.90
2022-08-16T23:13:53.160Z,99.90
2022-08-16T23:16:32.666Z,99.90
2022-08-16T23:19:03.100Z,99.90
2022-08-16T23:21:29.827Z,99.90
2022-08-16T23:23:56.544Z,99.90
2022-08-16T23:26:44.066Z,99.90
2022-08-16T23:29:13.782Z,99.90
2022-08-16T23:31:50.380Z,99.90
2022-08-16T23:34:20.811Z,99.90
2022-08-16T23:36:47.469Z,99.90
2022-08-16T23:39:14.164Z,99.90
2022-08-16T23:41:40.828Z,99.90
2022-08-16T23:44:44.205Z,99.90
2022-08-16T23:46:54.575Z,99.90
2022-08-16T23:49:56.291Z,99.90
2022-08-16T23:52:09.624Z,99.90
2022-08-16T23:54:36.694Z,99.90
2022-08-16T23:57:04.362Z,99.90
2022-08-16T23:59:35.973Z,99.90
